createdAt,value
2023-04-23T00:09:34.701Z,96601.20
2023-04-23T00:19:38.592Z,96598.27
2023-04-23T00:29:41.665Z,96592.15
2023-04-23T00:39:45.723Z,96591.42
2023-04-23T00:49:50.999Z,96589.92
2023-04-23T00:59:56.434Z,96587.08
2023-04-23T01:10:00.222Z,96579.88
2023-04-23T01:20:06.492Z,96583.58
2023-04-23T01:30:11.077Z,96580.06
2023-04-23T01:40:14.219Z,96584.22
2023-04-23T01:50:17.498Z,96584.25
2023-04-23T02:00:20.878Z,96588.20
2023-04-23T02:10:23.929Z,96591.11
2023-04-23T02:20:27.111Z,96590.70
2023-04-23T02:30:30.485Z,96591.91
2023-04-23T02:40:33.511Z,96590.00
2023-04-23T02:50:39.259Z,96586.63
2023-04-23T03:00:42.346Z,96585.73
2023-04-23T03:10:45.899Z,96587.95
2023-04-23T03:20:50.103Z,96582.52
2023-04-23T03:30:53.936Z,96579.43
2023-04-23T03:40:57.311Z,96582.73
2023-04-23T03:51:01.478Z,96584.14
2023-04-23T04:01:11.336Z,96582.13
2023-04-23T04:11:14.474Z,96585.74
2023-04-23T04:21:19.112Z,96588.05
2023-04-23T04:31:22.233Z,96591.09
2023-04-23T04:41:26.170Z,96585.38
2023-04-23T04:51:29.301Z,96590.96
2023-04-23T05:01:33.599Z,96589.14
2023-04-23T05:11:36.703Z,96585.94
2023-04-23T05:21:40.088Z,96582.02
2023-04-23T05:31:43.163Z,96572.55
2023-04-23T05:41:46.409Z,96573.08
2023-04-23T05:51:50.275Z,96569.03
2023-04-23T06:01:53.367Z,96568.90
2023-04-23T06:11:56.552Z,96565.91
2023-04-23T06:21:59.790Z,96565.89
2023-04-23T06:32:03.564Z,96567.98
2023-04-23T06:42:06.656Z,96562.52
2023-04-23T06:52:25.479Z,96550.75
2023-04-23T07:02:28.529Z,96542.22
2023-04-23T07:12:31.751Z,96534.16
2023-04-23T07:22:35.512Z,96532.84
2023-04-23T07:32:38.827Z,96523.26
2023-04-23T07:42:42.248Z,96521.42
2023-04-23T07:52:45.442Z,96519.05
2023-04-23T08:02:48.675Z,96517.59
2023-04-23T08:12:51.984Z,96508.97
2023-04-23T08:22:55.947Z,96498.03
2023-04-23T08:32:59.383Z,96487.76
2023-04-23T08:43:05.718Z,96476.58
2023-04-23T08:53:09.553Z,96466.85
2023-04-23T09:03:13.119Z,96452.57
2023-04-23T09:13:16.436Z,96454.78
2023-04-23T09:23:22.216Z,96450.99
2023-04-23T09:33:25.569Z,96444.32
2023-04-23T09:43:31.019Z,96433.55
2023-04-23T09:53:42.779Z,96425.49
2023-04-23T10:03:45.906Z,96414.60
2023-04-23T10:13:49.776Z,96405.73
2023-04-23T10:23:55.354Z,96400.40
2023-04-23T10:33:59.653Z,96391.76
2023-04-23T10:44:05.555Z,96380.88
2023-04-23T10:54:11.407Z,96374.83
2023-04-23T11:04:25.942Z,96378.80
2023-04-23T11:14:37.483Z,96376.66
2023-04-23T11:24:43.048Z,96365.15
2023-04-23T11:34:50.592Z,96350.63
2023-04-23T11:44:53.714Z,96346.64
2023-04-23T11:55:03.094Z,96341.23
2023-04-23T12:05:08.418Z,96340.52
2023-04-23T12:15:12.045Z,96327.71
2023-04-23T12:25:16.120Z,96320.02
2023-04-23T12:35:25.246Z,96302.42
2023-04-23T12:45:45.681Z,96298.56
2023-04-23T12:55:50.379Z,96285.46
2023-04-23T13:05:53.684Z,96276.76
2023-04-23T13:15:57.224Z,96269.13
2023-04-23T13:26:00.442Z,96255.96
2023-04-23T13:36:03.747Z,96241.95
2023-04-23T13:46:07.057Z,96234.98
2023-04-23T13:56:12.845Z,96222.13
2023-04-23T14:06:27.240Z,96207.30
2023-04-23T14:16:42.558Z,96193.19
2023-04-23T14:26:49.252Z,96197.73
2023-04-23T14:36:53.876Z,96188.72
2023-04-23T14:46:57.360Z,96190.94
2023-04-23T14:57:00.664Z,96189.33
2023-04-23T15:07:03.941Z,96188.56
2023-04-23T15:17:07.047Z,96181.19
2023-04-23T15:27:15.229Z,96167.56
2023-04-23T15:37:21.121Z,96162.27
2023-04-23T15:47:24.433Z,96160.23
2023-04-23T15:57:27.673Z,96154.95
2023-04-23T16:07:31.424Z,96153.23
2023-04-23T16:17:34.559Z,96146.72
2023-04-23T16:27:37.988Z,96140.19
2023-04-23T16:37:41.346Z,96137.48
2023-04-23T16:47:44.560Z,96134.35
2023-04-23T16:57:47.842Z,96127.41
2023-04-23T17:07:52.850Z,96126.10
2023-04-23T17:17:56.065Z,96132.64
2023-04-23T17:27:59.442Z,96139.17
2023-04-23T17:38:02.691Z,96138.96
2023-04-23T17:48:06.584Z,96140.86
2023-04-23T18:09:20.160Z,96160.40
2023-04-23T18:19:23.497Z,96170.27
2023-04-23T18:29:48.307Z,96181.29
2023-04-23T18:39:53.136Z,96184.91
2023-04-23T18:50:00.461Z,96188.34
2023-04-23T19:00:04.114Z,96194.80
2023-04-23T19:10:17.070Z,96198.91
2023-04-23T19:20:27.024Z,96201.46
2023-04-23T19:30:32.911Z,96204.92
2023-04-23T19:40:37.618Z,96205.00
2023-04-23T19:50:41.201Z,96199.08
2023-04-23T20:01:17.999Z,96196.86
2023-04-23T20:11:21.313Z,96188.94
2023-04-23T20:21:25.084Z,96186.63
2023-04-23T20:31:29.614Z,96186.84
2023-04-23T20:41:36.821Z,96180.61
2023-04-23T20:51:43.496Z,96183.73
2023-04-23T21:12:34.918Z,96182.57
2023-04-23T21:22:51.176Z,96187.03
2023-04-23T21:32:56.389Z,96186.33
2023-04-23T21:43:01.102Z,96184.14
2023-04-23T21:53:05.580Z,96176.43
2023-04-23T22:03:09.661Z,96178.42
2023-04-23T22:13:14.879Z,96179.22
2023-04-23T22:23:17.956Z,96174.40
2023-04-23T22:33:21.238Z,96177.05
2023-04-23T22:43:24.274Z,96170.11
2023-04-23T22:53:27.361Z,96167.52
2023-04-23T23:03:30.547Z,96163.55
2023-04-23T23:13:33.690Z,96153.98
2023-04-23T23:23:36.739Z,96145.83
2023-04-23T23:33:40.302Z,96141.66
2023-04-23T23:43:43.288Z,96144.77
2023-04-23T23:53:47.534Z,96146.84
